createdAt,value
2022-08-30T00:01:26.454Z,84.93
2022-08-30T00:11:29.256Z,84.85
2022-08-30T00:21:31.464Z,84.98
2022-08-30T00:31:33.691Z,85.14
2022-08-30T00:41:37.242Z,85.26
2022-08-30T00:51:41.056Z,85.07
2022-08-30T01:01:43.902Z,85.04
2022-08-30T01:11:47.383Z,85.15
2022-08-30T01:21:57.473Z,85.01
2022-08-30T01:31:59.965Z,85.19
2022-08-30T01:42:03.767Z,85.15
2022-08-30T01:52:07.223Z,85.20
2022-08-30T02:02:10.195Z,85.18
2022-08-30T02:12:12.406Z,85.10
2022-08-30T02:22:14.684Z,84.80
2022-08-30T02:32:17.129Z,84.33
2022-08-30T02:42:19.376Z,83.86
2022-08-30T02:52:27.661Z,83.60
2022-08-30T03:02:30.458Z,83.47
2022-08-30T03:12:33.303Z,83.75
2022-08-30T03:22:36.735Z,83.93
2022-08-30T03:32:39.564Z,84.12
2022-08-30T03:42:43.395Z,84.39
2022-08-30T03:52:46.314Z,84.64
2022-08-30T04:02:48.453Z,84.98
2022-08-30T04:12:50.912Z,85.49
2022-08-30T04:22:53.140Z,85.22
2022-08-30T04:32:58.586Z,84.67
2022-08-30T04:43:01.112Z,84.28
2022-08-30T04:53:03.393Z,83.94
2022-08-30T05:03:05.589Z,83.95
2022-08-30T05:13:08.515Z,83.94
2022-08-30T05:23:11.069Z,84.30
2022-08-30T05:33:13.265Z,84.51
2022-08-30T05:44:44.282Z,84.52
2022-08-30T05:54:53.153Z,84.39
2022-08-30T06:04:55.421Z,84.39
2022-08-30T06:14:59.770Z,83.56
2022-08-30T06:25:02.047Z,83.87
2022-08-30T06:35:06.122Z,83.27
2022-08-30T06:45:10.512Z,82.46
2022-08-30T06:55:15.852Z,82.52
2022-08-30T07:13:49.716Z,81.98
2022-08-30T07:23:53.747Z,80.34
2022-08-30T07:33:56.523Z,79.85
2022-08-30T07:43:58.984Z,78.93
2022-08-30T07:54:01.289Z,77.73
2022-08-30T08:04:03.685Z,77.95
2022-08-30T08:14:05.984Z,72.10
2022-08-30T08:24:08.781Z,67.54
2022-08-30T08:34:11.858Z,66.08
2022-08-30T08:44:26.132Z,67.18
2022-08-30T08:54:36.961Z,63.50
2022-08-30T09:04:39.843Z,66.60
2022-08-30T09:15:28.491Z,72.04
2022-08-30T09:25:32.763Z,66.53
2022-08-30T09:35:44.505Z,65.84
2022-08-30T09:46:08.943Z,64.12
2022-08-30T09:56:26.205Z,60.80
2022-08-30T10:06:44.611Z,66.04
2022-08-30T10:17:10.034Z,65.86
2022-08-30T10:27:24.044Z,62.95
2022-08-30T10:37:29.965Z,61.76
2022-08-30T10:47:42.445Z,67.23
2022-08-30T10:57:45.507Z,66.59
2022-08-30T11:08:06.333Z,68.43
2022-08-30T11:18:08.407Z,57.89
2022-08-30T11:28:12.126Z,57.57
2022-08-30T11:38:28.497Z,60.90
2022-08-30T11:48:54.105Z,60.07
2022-08-30T11:59:00.622Z,64.97
2022-08-30T12:09:03.256Z,62.17
2022-08-30T12:19:18.663Z,59.73
2022-08-30T12:29:25.691Z,67.95
2022-08-30T12:39:32.347Z,62.66
2022-08-30T12:49:36.974Z,63.48
2022-08-30T12:59:42.541Z,64.64
2022-08-30T13:09:46.673Z,61.32
2022-08-30T13:20:07.260Z,63.88
2022-08-30T13:30:13.523Z,65.07
2022-08-30T13:40:17.603Z,65.73
2022-08-30T13:50:20.952Z,66.84
2022-08-30T14:00:25.295Z,70.83
2022-08-30T14:10:31.561Z,68.78
2022-08-30T14:20:38.755Z,65.21
2022-08-30T14:30:41.988Z,65.18
2022-08-30T14:40:44.913Z,70.13
2022-08-30T14:50:47.077Z,70.22
2022-08-30T15:00:52.923Z,69.17
2022-08-30T15:10:55.151Z,65.55
2022-08-30T15:20:57.277Z,64.10
2022-08-30T15:30:59.534Z,67.03
2022-08-30T15:41:07.745Z,68.77
2022-08-30T15:51:09.888Z,70.66
2022-08-30T16:01:13.696Z,72.83
2022-08-30T16:11:19.854Z,66.98
2022-08-30T16:21:23.885Z,70.76
2022-08-30T16:31:28.329Z,72.29
2022-08-30T16:41:30.588Z,73.92
2022-08-30T16:51:35.898Z,75.11
2022-08-30T17:01:38.950Z,76.53
2022-08-30T17:11:41.402Z,77.90
2022-08-30T17:21:45.315Z,78.61
2022-08-30T17:31:50.976Z,79.23
2022-08-30T17:41:53.671Z,79.78
2022-08-30T17:51:57.161Z,80.01
2022-08-30T18:02:01.614Z,80.28
2022-08-30T18:12:04.579Z,80.79
2022-08-30T18:22:08.052Z,80.56
2022-08-30T18:32:11.481Z,81.20
2022-08-30T18:42:14.043Z,82.24
2022-08-30T18:52:16.768Z,82.68
2022-08-30T19:02:20.514Z,83.29
2022-08-30T19:12:22.843Z,83.47
2022-08-30T19:22:26.733Z,84.15
2022-08-30T19:32:32.622Z,84.60
2022-08-30T19:42:38.436Z,84.75
2022-08-30T19:52:52.740Z,84.44
2022-08-30T20:02:56.168Z,84.34
2022-08-30T20:12:58.459Z,84.37
2022-08-30T20:23:02.170Z,84.60
2022-08-30T20:40:12.300Z,84.86
2022-08-30T20:50:18.690Z,84.61
2022-08-30T21:00:21.034Z,84.10
2022-08-30T21:10:25.948Z,83.38
2022-08-30T21:20:28.573Z,82.92
2022-08-30T21:30:30.900Z,82.98
2022-08-30T21:40:33.609Z,82.63
2022-08-30T21:50:38.429Z,82.69
2022-08-30T22:00:40.676Z,82.43
2022-08-30T22:10:44.497Z,82.03
2022-08-30T22:20:46.622Z,82.03
2022-08-30T22:30:49.781Z,82.00
2022-08-30T22:40:54.389Z,81.61
2022-08-30T22:50:56.555Z,82.07
2022-08-30T23:00:58.789Z,82.52
2022-08-30T23:11:02.918Z,83.07
2022-08-30T23:21:11.489Z,82.97
2022-08-30T23:31:36.061Z,82.93
2022-08-30T23:41:56.852Z,82.17
2022-08-30T23:52:17.992Z,82.54
